UPSVAC Airport Information Service

Sacramento Mather Airport

ICAO: KMHR Country: United States
Latitude: 38.5553 Longitude: -121.297
Latest Arrival : UPS552 (KSDF-KMHR) Latest Departure : UPS2370 (KMHR-KSDF)


WX CaptureLIVE
Data provided by noaa.gov | Fetched at 14:38:36

METAR : KMHR 141350Z 10004KT 10SM SKC 05/04 A2988

TAF : KMHR 141120Z 1412/1512 VRB05KT P6SM FEW250 NOT SKED


Runway Data for KMHR
Data provided by openaviationdata.com

Runway ID Mag Var Hdg Length Elevation Surface ILS Freq ILS Id ILS Slope
04L 15 38° 6037 ft 96 ft Asphalt -- -- --
04R 15 37° 11295 ft 96 ft Concrete 110.7 IPOK 3
22L 15 217° 11295 ft 96 ft Concrete 110.7 IMHR 3
22R 15 218° 6037 ft 96 ft Asphalt -- -- --

Sacramento Mather Airport, United States
Use only for reference purposes



Not for navigational purposes.